Time;durP1;ratioP1;P1;durP2;ratioP2;P2;SDS_P1;SDS_P2;PMS_P1;PMS_P2;Temp;Humidity;BMP_temperature;BMP_pressure;BME280_temperature;BME280_humidity;BME280_pressure;Samples;Min_cycle;Max_cycle;Signal;HPM_P1;HPM_P2
2022/04/19 00:00:56;;;;;;;7.63;4.65;;;12.10;37.10;;;;;;5132548;27;20076;-61
2022/04/19 00:03:22;;;;;;;8.10;5.00;;;12.10;37.00;;;;;;5133328;27;20034;-59
2022/04/19 00:05:48;;;;;;;8.48;4.93;;;12.20;36.90;;;;;;5096978;27;20027;-59
2022/04/19 00:08:15;;;;;;;7.95;4.53;;;12.20;36.80;;;;;;5132819;27;20035;-58
2022/04/19 00:10:42;;;;;;;6.60;4.30;;;12.10;36.70;;;;;;5132899;27;20031;-58
2022/04/19 00:13:10;;;;;;;7.50;4.72;;;12.20;36.70;;;;;;5113739;27;20031;-58
2022/04/19 00:15:38;;;;;;;9.05;5.43;;;12.20;36.70;;;;;;5132559;27;20103;-60
2022/04/19 00:18:05;;;;;;;6.88;4.93;;;12.20;36.60;;;;;;5113773;27;20042;-62
2022/04/19 00:20:33;;;;;;;8.50;5.13;;;12.20;36.60;;;;;;5132836;27;20034;-58
2022/04/19 00:22:59;;;;;;;7.50;4.63;;;12.20;36.50;;;;;;5114055;27;20030;-60
2022/04/19 00:25:25;;;;;;;9.30;4.53;;;12.20;36.60;;;;;;5132813;27;20098;-58
2022/04/19 00:27:51;;;;;;;8.63;4.68;;;12.20;36.60;;;;;;5131581;27;20035;-59
2022/04/19 00:30:17;;;;;;;8.60;4.85;;;12.20;36.60;;;;;;5132615;27;20079;-60
2022/04/19 00:32:43;;;;;;;7.60;5.03;;;12.20;36.60;;;;;;5131934;27;20026;-63
2022/04/19 00:35:10;;;;;;;8.15;5.50;;;12.20;36.60;;;;;;5113959;27;20332;-58
2022/04/19 00:37:37;;;;;;;7.25;4.80;;;12.20;36.50;;;;;;5132081;27;20109;-57
2022/04/19 00:40:04;;;;;;;11.40;5.60;;;12.20;36.70;;;;;;5131936;27;20176;-59
2022/04/19 00:42:31;;;;;;;7.38;5.15;;;12.10;37.00;;;;;;5132709;27;20051;-58
2022/04/19 00:44:58;;;;;;;7.43;5.47;;;12.10;38.20;;;;;;5131892;27;20027;-59
2022/04/19 00:47:25;;;;;;;9.90;5.00;;;12.20;39.90;;;;;;5132530;27;20103;-59
2022/04/19 00:49:51;;;;;;;7.63;5.35;;;12.20;40.40;;;;;;5129537;27;20066;-58
2022/04/19 00:52:18;;;;;;;8.35;5.10;;;12.20;40.80;;;;;;5130021;27;20027;-58
2022/04/19 00:54:44;;;;;;;7.80;5.55;;;12.20;40.90;;;;;;5132297;27;20027;-61
2022/04/19 00:57:11;;;;;;;7.47;4.90;;;12.20;40.90;;;;;;5131896;27;20027;-61
2022/04/19 00:59:37;;;;;;;9.38;5.10;;;12.20;40.20;;;;;;5132108;27;20031;-60
2022/04/19 01:02:03;;;;;;;7.82;4.57;;;12.10;39.50;;;;;;5131762;27;20424;-60
2022/04/19 01:04:30;;;;;;;6.57;4.45;;;12.00;39.20;;;;;;5132274;27;20484;-58
2022/04/19 01:06:57;;;;;;;6.05;4.50;;;11.90;38.90;;;;;;5131611;28;20026;-58
2022/04/19 01:09:24;;;;;;;6.93;4.28;;;12.00;39.00;;;;;;5132384;28;20030;-60
2022/04/19 01:14:36;;;;;;;6.53;4.55;;;12.00;39.20;;;;;;5132588;28;20050;-59
2022/04/19 01:17:03;;;;;;;7.35;4.90;;;12.00;39.50;;;;;;5131512;27;20027;-58
2022/04/19 01:19:29;;;;;;;8.25;5.10;;;12.00;39.80;;;;;;5132255;28;20114;-56
2022/04/19 01:21:55;;;;;;;7.20;4.50;;;12.00;39.90;;;;;;5131031;28;20091;-59
2022/04/19 01:24:22;;;;;;;6.82;4.63;;;12.00;40.70;;;;;;5132327;27;20061;-57
2022/04/19 01:26:49;;;;;;;7.53;4.30;;;11.90;40.20;;;;;;5131530;28;20027;-63
2022/04/19 01:29:15;;;;;;;7.00;4.60;;;11.90;40.20;;;;;;5132091;28;20039;-60
2022/04/19 01:31:42;;;;;;;7.75;4.45;;;11.80;40.20;;;;;;5131895;28;20023;-57
2022/04/19 01:34:09;;;;;;;7.95;4.30;;;11.90;40.20;;;;;;5131424;27;20019;-59
2022/04/19 01:36:35;;;;;;;8.35;4.50;;;11.90;40.20;;;;;;5113521;28;20027;-60
2022/04/19 01:39:03;;;;;;;7.40;4.38;;;11.90;40.30;;;;;;5131326;28;20031;-59
2022/04/19 01:41:29;;;;;;;9.57;4.60;;;11.90;40.50;;;;;;5113635;28;20065;-59
2022/04/19 01:44:15;;;;;;;6.72;4.38;;;11.90;40.50;;;;;;5133608;27;20027;-59
2022/04/19 01:46:40;;;;;;;8.18;4.82;;;11.90;40.40;;;;;;5115946;27;20030;-58
2022/04/19 01:49:07;;;;;;;8.60;4.30;;;11.90;40.30;;;;;;5130524;27;20147;-58
2022/04/19 01:51:33;;;;;;;6.43;4.13;;;12.00;40.30;;;;;;5112552;27;20026;-59
2022/04/19 01:53:58;;;;;;;5.80;3.92;;;11.90;40.00;;;;;;5129892;27;20397;-60
2022/04/19 01:56:25;;;;;;;9.35;4.20;;;11.90;39.70;;;;;;5129790;27;20040;-63
2022/04/19 01:58:50;;;;;;;7.70;4.15;;;11.90;38.80;;;;;;5129942;27;20036;-62
2022/04/19 02:01:17;;;;;;;6.00;4.38;;;11.90;39.20;;;;;;5130257;27;20027;-61
2022/04/19 02:03:43;;;;;;;5.32;3.92;;;11.90;39.50;;;;;;5130204;27;20098;-60
2022/04/19 02:06:10;;;;;;;8.02;4.00;;;11.90;39.50;;;;;;5129253;27;20168;-63
2022/04/19 02:08:36;;;;;;;7.25;4.85;;;11.90;40.10;;;;;;5111783;27;20028;-63
2022/04/19 02:11:02;;;;;;;8.38;4.88;;;11.80;40.80;;;;;;5129355;27;20467;-57
2022/04/19 02:13:28;;;;;;;7.95;5.00;;;11.80;40.90;;;;;;5130202;27;20060;-61
2022/04/19 02:15:54;;;;;;;7.78;4.38;;;11.80;41.10;;;;;;5110970;27;20027;-60
2022/04/19 02:18:20;;;;;;;6.65;4.65;;;11.70;41.10;;;;;;5129559;27;20035;-61
2022/04/19 02:20:46;;;;;;;10.93;5.03;;;11.70;41.10;;;;;;5130025;27;20027;-63
2022/04/19 02:23:15;;;;;;;7.03;4.80;;;11.70;41.00;;;;;;5111313;27;20459;-60
2022/04/19 02:25:42;;;;;;;6.95;4.53;;;11.70;40.90;;;;;;5129716;27;20250;-61
2022/04/19 02:28:10;;;;;;;9.32;4.68;;;11.70;41.10;;;;;;5128863;27;20289;-61
2022/04/19 02:30:36;;;;;;;9.52;4.60;;;11.80;41.30;;;;;;5131623;27;20107;-58
2022/04/19 02:33:02;;;;;;;8.52;4.85;;;11.80;41.70;;;;;;5130487;27;20026;-60
2022/04/19 02:35:28;;;;;;;8.27;5.35;;;11.80;42.00;;;;;;5111116;27;20023;-61
2022/04/19 02:37:56;;;;;;;9.05;5.00;;;11.80;42.00;;;;;;5112707;27;20039;-59
2022/04/19 02:40:24;;;;;;;8.98;5.03;;;11.80;42.00;;;;;;5129802;27;20020;-61
2022/04/19 02:42:53;;;;;;;9.75;4.90;;;11.80;42.00;;;;;;5129412;27;20109;-63
2022/04/19 02:45:20;;;;;;;7.25;5.05;;;11.80;41.90;;;;;;5111486;27;20028;-63
2022/04/19 02:47:46;;;;;;;8.40;4.72;;;11.80;41.90;;;;;;5129842;27;20027;-64
2022/04/19 02:50:12;;;;;;;6.32;4.85;;;11.80;41.90;;;;;;5128711;27;20026;-60
2022/04/19 02:52:38;;;;;;;9.93;4.70;;;11.70;41.70;;;;;;5129651;27;20111;-57
2022/04/19 02:55:04;;;;;;;6.75;4.72;;;11.70;41.70;;;;;;5128281;27;20509;-58
2022/04/19 02:57:29;;;;;;;9.10;5.00;;;11.60;41.70;;;;;;5129091;27;20019;-62
2022/04/19 02:59:55;;;;;;;7.15;4.72;;;11.50;41.70;;;;;;5110302;27;20029;-60
2022/04/19 03:02:21;;;;;;;8.70;5.60;;;11.50;42.40;;;;;;5129231;27;20219;-57
2022/04/19 03:04:47;;;;;;;7.43;4.38;;;11.50;41.90;;;;;;5111746;27;20082;-64
2022/04/19 03:07:31;;;;;;;9.93;4.80;;;11.50;41.70;;;;;;5128470;27;20023;-60
2022/04/19 03:09:57;;;;;;;10.70;4.68;;;11.60;41.60;;;;;;5128951;27;20023;-61
2022/04/19 03:12:23;;;;;;;7.78;4.43;;;11.60;42.10;;;;;;5131141;27;20030;-59
2022/04/19 03:14:48;;;;;;;7.45;4.97;;;11.60;41.60;;;;;;5134352;27;20498;-62
2022/04/19 03:17:14;;;;;;;7.32;4.68;;;11.60;41.60;;;;;;5133957;27;20587;-59
2022/04/19 03:19:40;;;;;;;6.38;4.40;;;11.40;42.00;;;;;;5132972;27;20349;-60
2022/04/19 03:22:05;;;;;;;8.23;4.65;;;11.30;42.20;;;;;;5115004;27;20081;-59
2022/04/19 03:29:59;;;;;;;8.32;4.45;;;11.50;42.20;;;;;;5132688;27;19910;-59
2022/04/19 03:32:25;;;;;;;8.20;4.55;;;11.50;42.00;;;;;;5114992;27;20031;-62
2022/04/19 03:34:54;;;;;;;6.97;4.65;;;11.40;42.30;;;;;;5132361;27;20395;-59
2022/04/19 03:37:20;;;;;;;7.25;4.43;;;11.40;42.30;;;;;;5115664;27;20030;-60
2022/04/19 03:39:46;;;;;;;7.28;4.50;;;11.50;42.30;;;;;;5134258;27;20035;-63
2022/04/19 03:42:12;;;;;;;9.55;5.18;;;11.40;42.20;;;;;;5133188;27;20078;-59
2022/04/19 03:44:37;;;;;;;7.38;4.53;;;11.40;42.30;;;;;;5133550;27;20023;-59
2022/04/19 03:47:09;;;;;;;8.02;4.32;;;11.40;42.20;;;;;;5132392;27;20107;-61
2022/04/19 03:49:36;;;;;;;6.95;4.25;;;11.40;42.30;;;;;;5132913;27;20387;-58
2022/04/19 03:52:03;;;;;;;8.75;4.57;;;11.40;42.40;;;;;;5132524;27;20079;-60
2022/04/19 03:54:31;;;;;;;6.10;4.47;;;11.30;42.40;;;;;;5133094;27;20051;-59
2022/04/19 03:56:57;;;;;;;6.90;4.80;;;11.30;42.40;;;;;;5132639;27;20487;-59
2022/04/19 03:59:23;;;;;;;7.38;4.53;;;11.30;42.40;;;;;;5133677;27;20027;-57
2022/04/19 04:01:49;;;;;;;8.00;4.95;;;11.40;42.60;;;;;;5133822;27;20015;-64
2022/04/19 04:04:14;;;;;;;8.57;4.63;;;11.30;42.80;;;;;;5133053;27;20031;-59
2022/04/19 04:06:40;;;;;;;7.53;4.80;;;11.30;43.00;;;;;;5114911;27;20054;-58
2022/04/19 04:09:06;;;;;;;6.25;4.28;;;11.30;43.20;;;;;;5132868;27;20023;-58
2022/04/19 04:11:34;;;;;;;10.50;4.57;;;11.30;43.50;;;;;;5133179;27;20361;-61
2022/04/19 04:14:00;;;;;;;10.40;4.93;;;11.30;43.70;;;;;;5128686;27;20108;-61
2022/04/19 04:16:26;;;;;;;9.90;5.22;;;11.30;44.10;;;;;;5114984;27;20023;-57
2022/04/19 04:18:51;;;;;;;15.88;4.65;;;11.40;44.30;;;;;;5132546;27;20111;-63
2022/04/19 04:21:17;;;;;;;9.00;5.25;;;11.40;44.90;;;;;;5133893;27;20027;-60
2022/04/19 04:23:43;;;;;;;15.38;5.50;;;11.30;45.30;;;;;;5133294;27;20098;-58
2022/04/19 04:26:08;;;;;;;10.05;5.47;;;11.20;45.60;;;;;;5132844;27;20454;-58
2022/04/19 04:28:34;;;;;;;10.80;5.10;;;11.20;45.80;;;;;;5114622;27;20035;-59
2022/04/19 04:31:00;;;;;;;13.73;5.05;;;11.20;45.80;;;;;;5131694;27;20057;-61
2022/04/19 04:33:26;;;;;;;9.88;5.43;;;11.20;45.80;;;;;;5115146;27;20050;-59
2022/04/19 04:35:52;;;;;;;11.23;5.05;;;11.30;45.70;;;;;;5114291;27;20019;-64
2022/04/19 04:38:17;;;;;;;17.63;6.40;;;11.20;45.50;;;;;;5133288;27;20087;-59
2022/04/19 04:40:43;;;;;;;8.63;4.68;;;11.30;45.40;;;;;;5114578;27;20075;-59
2022/04/19 04:43:09;;;;;;;16.25;5.53;;;11.20;45.60;;;;;;5114184;27;20023;-59
2022/04/19 04:45:35;;;;;;;8.88;5.35;;;11.30;45.40;;;;;;5114859;27;20034;-57
2022/04/19 04:50:45;;;;;;;12.57;4.95;;;11.40;45.30;;;;;;5133117;27;20099;-59
2022/04/19 04:53:11;;;;;;;18.83;5.63;;;11.50;45.20;;;;;;5113974;27;20440;-60
2022/04/19 04:55:37;;;;;;;9.52;5.32;;;11.50;45.30;;;;;;5133192;27;20034;-59
2022/04/19 04:58:03;;;;;;;15.82;5.57;;;11.50;45.30;;;;;;5131869;27;20495;-59
2022/04/19 05:00:29;;;;;;;10.15;5.85;;;11.50;45.30;;;;;;5133093;27;20023;-59
2022/04/19 05:02:55;;;;;;;10.07;6.00;;;11.50;45.30;;;;;;5113801;27;20030;-65
2022/04/19 05:05:21;;;;;;;10.70;7.32;;;11.40;45.40;;;;;;5114745;28;20032;-60
2022/04/19 05:07:47;;;;;;;12.35;5.97;;;11.30;45.70;;;;;;5132524;27;20030;-58
2022/04/19 05:10:14;;;;;;;13.75;5.80;;;11.40;45.80;;;;;;5132199;28;20027;-57
2022/04/19 05:12:40;;;;;;;17.58;7.10;;;11.50;45.70;;;;;;5132662;27;20418;-57
2022/04/19 05:15:07;;;;;;;16.48;6.65;;;11.50;45.60;;;;;;5113753;28;20062;-58
2022/04/19 05:17:34;;;;;;;20.90;6.47;;;11.40;45.80;;;;;;5132507;27;20023;-57
2022/04/19 05:19:59;;;;;;;12.93;6.43;;;11.40;45.90;;;;;;5117769;27;20023;-57
2022/04/19 05:22:25;;;;;;;14.77;5.82;;;11.30;46.10;;;;;;5133914;27;20146;-60
2022/04/19 05:24:51;;;;;;;13.57;6.13;;;11.40;46.10;;;;;;5135982;27;20042;-57
2022/04/19 05:27:17;;;;;;;22.17;6.43;;;11.40;46.70;;;;;;5117426;27;20318;-55
2022/04/19 05:29:43;;;;;;;18.95;6.60;;;11.40;46.20;;;;;;5137413;27;20042;-56
2022/04/19 05:32:09;;;;;;;23.10;6.82;;;11.50;46.30;;;;;;5136018;27;20066;-55
2022/04/19 05:34:34;;;;;;;14.93;6.95;;;11.60;46.20;;;;;;5136248;27;20491;-57
2022/04/19 05:37:00;;;;;;;14.48;6.22;;;11.60;46.20;;;;;;5136262;27;20138;-59
2022/04/19 05:39:26;;;;;;;20.38;6.90;;;11.80;46.10;;;;;;5136689;27;20031;-56
2022/04/19 05:41:52;;;;;;;19.85;6.60;;;11.90;45.90;;;;;;5136241;27;20098;-59
2022/04/19 05:44:18;;;;;;;13.05;6.30;;;11.90;45.90;;;;;;5135777;27;20019;-56
2022/04/19 05:46:44;;;;;;;14.90;5.95;;;11.90;45.90;;;;;;5135678;27;20027;-56
2022/04/19 05:49:09;;;;;;;12.05;6.18;;;11.90;45.90;;;;;;5135427;27;20478;-56
2022/04/19 05:51:35;;;;;;;20.38;6.57;;;12.10;45.80;;;;;;5117860;27;20019;-56
2022/04/19 05:54:01;;;;;;;15.77;7.13;;;12.10;45.90;;;;;;5135524;27;20019;-60
2022/04/19 05:56:27;;;;;;;12.70;6.22;;;12.20;45.90;;;;;;5135984;27;20125;-57
2022/04/19 05:58:53;;;;;;;13.40;6.40;;;12.30;45.90;;;;;;5117674;27;20041;-57
2022/04/19 06:01:19;;;;;;;13.82;6.28;;;12.40;45.60;;;;;;5135786;27;20019;-57
2022/04/19 06:06:30;;;;;;;16.17;5.95;;;12.40;45.40;;;;;;5136223;27;20099;-58
2022/04/19 06:08:56;;;;;;;14.88;6.18;;;12.50;45.20;;;;;;5135556;27;20031;-58
2022/04/19 06:11:22;;;;;;;16.02;6.28;;;12.40;44.90;;;;;;5135045;27;20505;-58
2022/04/19 06:13:47;;;;;;;14.65;6.07;;;12.10;45.30;;;;;;5135854;27;20041;-58
2022/04/19 06:16:13;;;;;;;12.77;5.72;;;11.90;45.80;;;;;;5135140;27;20068;-57
2022/04/19 06:18:39;;;;;;;10.10;6.75;;;11.70;46.60;;;;;;5116756;27;20451;-57
2022/04/19 06:21:05;;;;;;;17.60;6.25;;;11.60;46.70;;;;;;5135077;27;20019;-58
2022/04/19 06:23:32;;;;;;;11.65;5.78;;;11.50;46.70;;;;;;5135854;27;20016;-58
2022/04/19 06:25:58;;;;;;;21.17;7.25;;;11.30;47.00;;;;;;5131971;27;20494;-62
2022/04/19 06:28:25;;;;;;;22.13;7.07;;;11.20;47.50;;;;;;5115424;27;20062;-59
2022/04/19 06:30:54;;;;;;;20.02;6.38;;;11.20;47.60;;;;;;5132756;27;20102;-57
2022/04/19 06:33:20;;;;;;;9.40;5.90;;;11.30;47.60;;;;;;5116475;27;20057;-57
2022/04/19 06:35:47;;;;;;;13.18;5.72;;;11.40;47.70;;;;;;5135102;27;20019;-55
2022/04/19 06:38:13;;;;;;;11.15;6.15;;;11.40;47.40;;;;;;5116171;27;20034;-58
2022/04/19 06:40:38;;;;;;;9.45;5.63;;;11.40;47.20;;;;;;5116489;27;20023;-56
2022/04/19 06:43:05;;;;;;;13.55;5.70;;;11.50;47.50;;;;;;5134824;27;20141;-60
2022/04/19 06:45:31;;;;;;;10.45;5.68;;;11.40;47.80;;;;;;5116686;27;20138;-54
2022/04/19 06:47:59;;;;;;;9.50;5.63;;;11.40;47.70;;;;;;5134566;27;20027;-57
2022/04/19 06:50:25;;;;;;;14.07;6.18;;;11.40;48.00;;;;;;5099617;27;20038;-58
2022/04/19 06:52:52;;;;;;;12.63;5.88;;;11.50;48.40;;;;;;5134769;27;20030;-56
2022/04/19 06:55:19;;;;;;;9.50;5.40;;;11.50;48.80;;;;;;5133652;27;20102;-56
2022/04/19 06:57:48;;;;;;;12.05;5.82;;;11.60;48.90;;;;;;5116756;27;20027;-58
2022/04/19 07:00:15;;;;;;;10.45;5.68;;;11.60;49.30;;;;;;5134200;27;20027;-59
2022/04/19 07:02:42;;;;;;;9.27;5.25;;;11.60;49.30;;;;;;5114970;27;20212;-59
2022/04/19 07:05:08;;;;;;;7.15;5.70;;;11.50;49.10;;;;;;5115762;27;20080;-58
2022/04/19 07:07:33;;;;;;;7.22;5.25;;;11.50;49.20;;;;;;5130835;27;20035;-58
2022/04/19 07:09:59;;;;;;;8.75;5.82;;;11.50;49.90;;;;;;5120290;27;20055;-62
2022/04/19 07:12:25;;;;;;;9.35;5.95;;;11.50;49.80;;;;;;5118885;27;20023;-62
2022/04/19 07:14:51;;;;;;;8.55;5.68;;;11.40;49.50;;;;;;5109773;27;20494;-57
2022/04/19 07:17:16;;;;;;;9.77;6.25;;;11.30;49.80;;;;;;5133790;27;20034;-57
2022/04/19 07:28:02;;;;;;;10.27;6.85;;;11.50;51.90;;;;;;5132964;27;19930;-57
2022/04/19 07:30:29;;;;;;;11.48;7.57;;;11.50;52.40;;;;;;5131959;27;20030;-62
2022/04/19 07:32:55;;;;;;;11.43;6.70;;;11.60;53.00;;;;;;5132828;27;20080;-63
2022/04/19 07:35:21;;;;;;;11.63;6.88;;;11.60;53.70;;;;;;5132293;27;20029;-57
2022/04/19 07:37:47;;;;;;;11.68;7.00;;;11.60;53.40;;;;;;5133381;27;20102;-57
2022/04/19 07:40:12;;;;;;;10.63;7.90;;;11.70;53.90;;;;;;5097214;27;20452;-56
2022/04/19 07:42:38;;;;;;;12.20;7.95;;;11.70;54.10;;;;;;5114003;27;20225;-59
2022/04/19 07:45:04;;;;;;;11.13;8.27;;;11.80;54.30;;;;;;5130072;27;20404;-62
2022/04/19 07:47:33;;;;;;;12.85;7.30;;;11.90;55.40;;;;;;5112169;27;20269;-62
2022/04/19 07:49:59;;;;;;;10.50;7.20;;;11.80;54.10;;;;;;5131891;27;20026;-63
2022/04/19 07:52:25;;;;;;;10.95;7.53;;;11.70;53.60;;;;;;5131683;27;20098;-60
2022/04/19 07:54:50;;;;;;;12.75;7.32;;;11.60;53.70;;;;;;5112727;27;20034;-60
2022/04/19 07:57:20;;;;;;;10.82;7.30;;;11.60;54.30;;;;;;5130181;27;20027;-61
2022/04/19 07:59:46;;;;;;;13.98;7.72;;;11.60;54.10;;;;;;5112008;27;20035;-60
2022/04/19 08:02:14;;;;;;;10.52;6.93;;;11.60;54.10;;;;;;5113039;27;20050;-63
2022/04/19 08:04:40;;;;;;;12.85;7.00;;;11.60;54.10;;;;;;5131911;27;20098;-61
2022/04/19 08:07:06;;;;;;;10.93;7.00;;;11.60;54.20;;;;;;5130536;27;20375;-59
2022/04/19 08:09:32;;;;;;;12.38;6.68;;;11.60;54.20;;;;;;5131990;27;20026;-58
2022/04/19 08:11:58;;;;;;;11.68;6.70;;;11.60;54.60;;;;;;5132121;27;20095;-59
2022/04/19 08:14:24;;;;;;;10.20;6.50;;;11.50;54.80;;;;;;5129074;27;20050;-58
2022/04/19 08:16:49;;;;;;;17.35;7.25;;;11.50;55.00;;;;;;5132045;27;20020;-60
2022/04/19 08:19:15;;;;;;;14.68;6.88;;;11.70;55.20;;;;;;5129584;27;20035;-57
2022/04/19 08:21:41;;;;;;;10.02;6.82;;;11.90;54.70;;;;;;5131616;27;20011;-61
2022/04/19 08:24:06;;;;;;;19.08;9.82;;;12.00;53.90;;;;;;5131382;27;20405;-60
2022/04/19 08:26:32;;;;;;;33.53;8.45;;;12.10;54.00;;;;;;5131767;27;20022;-60
2022/04/19 08:28:58;;;;;;;12.85;7.10;;;12.30;54.20;;;;;;5131487;27;20150;-61
2022/04/19 08:31:24;;;;;;;11.77;6.75;;;12.40;54.10;;;;;;5131849;27;20030;-61
2022/04/19 08:33:50;;;;;;;12.48;6.47;;;12.40;53.30;;;;;;5113070;27;20026;-62
2022/04/19 08:36:15;;;;;;;9.75;6.95;;;12.50;52.90;;;;;;5131325;27;20443;-57
2022/04/19 08:38:41;;;;;;;11.55;6.75;;;12.60;52.40;;;;;;5132116;27;20039;-59
2022/04/19 08:41:07;;;;;;;15.10;7.13;;;12.70;52.80;;;;;;5131485;27;20062;-59
2022/04/19 08:43:34;;;;;;;11.10;7.55;;;12.80;52.40;;;;;;5113922;27;20026;-59
2022/04/19 08:46:00;;;;;;;15.88;7.70;;;12.90;52.90;;;;;;5112830;27;20015;-60
2022/04/19 08:48:26;;;;;;;17.58;7.93;;;13.00;52.50;;;;;;5129239;27;20019;-59
2022/04/19 08:50:54;;;;;;;13.02;7.53;;;13.10;53.00;;;;;;5130626;27;20023;-54
2022/04/19 08:58:49;;;;;;;;;;;12.70;52.70;;;;;;5132088;27;20067;-57
2022/04/19 09:01:16;;;;;;;17.10;7.88;;;12.60;54.00;;;;;;5128459;27;19994;-57
2022/04/19 09:03:42;;;;;;;13.35;7.70;;;12.50;54.30;;;;;;5131013;27;20015;-57
2022/04/19 09:06:08;;;;;;;14.93;8.07;;;12.40;54.00;;;;;;5113131;27;20348;-59
2022/04/19 09:08:34;;;;;;;10.57;7.30;;;12.30;55.00;;;;;;5113308;28;20031;-60
2022/04/19 09:11:05;;;;;;;11.50;7.47;;;12.20;55.20;;;;;;5111365;28;20165;-58
2022/04/19 09:13:31;;;;;;;14.23;8.20;;;12.30;54.60;;;;;;5132315;27;20030;-56
2022/04/19 09:16:06;;;;;;;16.88;8.23;;;12.40;54.60;;;;;;5113654;28;20456;-60
2022/04/19 09:18:35;;;;;;;10.80;7.68;;;12.50;55.10;;;;;;5131401;28;20454;-60
2022/04/19 09:21:04;;;;;;;11.65;8.57;;;12.80;54.50;;;;;;5112019;28;20019;-62
2022/04/19 09:23:32;;;;;;;9.60;7.07;;;13.00;54.00;;;;;;5131544;28;20023;-62
2022/04/19 09:26:08;;;;;;;8.75;6.40;;;13.30;52.00;;;;;;5113222;28;20118;-60
2022/04/19 09:28:34;;;;;;;11.75;7.25;;;13.20;51.00;;;;;;5130293;28;20027;-56
2022/04/19 09:31:01;;;;;;;9.38;6.90;;;13.30;51.30;;;;;;5113165;28;20023;-61
2022/04/19 09:33:28;;;;;;;11.80;8.05;;;13.30;51.80;;;;;;5128773;28;20023;-61
2022/04/19 09:35:59;;;;;;;10.70;7.80;;;13.20;52.30;;;;;;5130353;28;20463;-57
2022/04/19 09:38:44;;;;;;;13.20;7.63;;;13.20;52.10;;;;;;5112250;28;20035;-61
2022/04/19 09:41:30;;;;;;;12.93;7.90;;;13.20;52.80;;;;;;5130692;27;20067;-56
2022/04/19 09:44:07;;;;;;;14.52;7.60;;;13.20;52.10;;;;;;5112693;28;20029;-57
2022/04/19 09:46:32;;;;;;;11.00;7.50;;;12.80;52.50;;;;;;5112859;28;20023;-54
2022/04/19 09:48:58;;;;;;;12.80;7.88;;;12.80;52.80;;;;;;5130963;28;20026;-58
2022/04/19 09:51:31;;;;;;;14.25;8.30;;;12.60;53.20;;;;;;5130913;27;20166;-62
2022/04/19 09:53:56;;;;;;;13.27;8.90;;;12.50;54.10;;;;;;5130583;28;20025;-61
2022/04/19 09:56:22;;;;;;;10.23;8.38;;;12.30;54.70;;;;;;5111152;28;20440;-58
2022/04/19 09:58:50;;;;;;;18.42;9.57;;;12.10;55.80;;;;;;5129582;28;20076;-57
2022/04/19 10:09:34;;;;;;;13.38;9.35;;;11.60;58.90;;;;;;5134379;27;20046;-62
2022/04/19 10:12:04;;;;;;;9.45;7.43;;;11.60;58.80;;;;;;5134281;27;20019;-62
2022/04/19 10:14:31;;;;;;;9.35;7.68;;;11.40;57.30;;;;;;5134702;27;20019;-57
2022/04/19 10:17:03;;;;;;;12.52;8.85;;;11.20;57.40;;;;;;5116054;27;20042;-61
2022/04/19 10:19:30;;;;;;;14.60;9.15;;;11.20;58.30;;;;;;5116324;27;20519;-60
2022/04/19 10:21:58;;;;;;;12.45;7.70;;;11.30;58.90;;;;;;5116339;27;20015;-61
2022/04/19 10:24:27;;;;;;;12.40;8.93;;;11.30;58.60;;;;;;5133587;27;20190;-62
2022/04/19 10:26:53;;;;;;;11.40;8.75;;;11.30;59.30;;;;;;5116013;27;20312;-60
2022/04/19 10:29:28;;;;;;;15.05;9.10;;;11.40;58.80;;;;;;5114861;27;20447;-58
2022/04/19 10:32:06;;;;;;;11.68;8.98;;;11.30;58.80;;;;;;5115743;27;20026;-59
2022/04/19 10:34:37;;;;;;;14.68;9.98;;;11.40;59.50;;;;;;5133575;27;20019;-59
2022/04/19 10:37:12;;;;;;;11.07;8.60;;;11.40;60.40;;;;;;5133638;27;20027;-58
2022/04/19 10:39:47;;;;;;;12.43;7.88;;;11.40;60.60;;;;;;5133880;27;20420;-62
2022/04/19 10:42:33;;;;;;;12.68;7.97;;;11.40;59.70;;;;;;5132042;27;20055;-61
2022/04/19 10:45:20;;;;;;;14.57;9.30;;;11.40;59.70;;;;;;5134043;27;20058;-61
2022/04/19 10:48:07;;;;;;;9.98;7.68;;;11.40;60.30;;;;;;5134528;27;20023;-60
2022/04/19 10:50:40;;;;;;;13.68;7.53;;;11.40;59.50;;;;;;5114466;27;20023;-60
2022/04/19 10:53:12;;;;;;;17.10;8.63;;;11.40;59.30;;;;;;5133576;27;20038;-63
2022/04/19 10:55:58;;;;;;;15.45;9.85;;;11.20;60.30;;;;;;5133936;27;20099;-62
2022/04/19 10:58:41;;;;;;;17.20;8.00;;;11.20;60.90;;;;;;5130396;27;20174;-62
2022/04/19 11:01:26;;;;;;;20.15;10.15;;;11.20;61.20;;;;;;5133344;27;20018;-59
2022/04/19 11:03:52;;;;;;;11.48;8.75;;;11.00;61.10;;;;;;5114748;27;20039;-60
2022/04/19 11:06:31;;;;;;;10.38;7.90;;;11.00;61.00;;;;;;5114769;27;20026;-59
2022/04/19 11:09:15;;;;;;;8.43;7.07;;;11.00;61.40;;;;;;5134516;27;20459;-61
2022/04/19 11:11:47;;;;;;;;;;;10.80;61.60;;;;;;5134328;27;20011;-62
2022/04/19 11:14:17;;;;;;;10.57;6.85;;;10.80;63.10;;;;;;5112605;27;20002;-61
2022/04/19 11:16:43;;;;;;;7.80;6.60;;;10.80;60.80;;;;;;5114611;27;20023;-62
2022/04/19 11:19:25;;;;;;;11.07;8.05;;;10.60;60.50;;;;;;5133449;27;20065;-60
2022/04/19 11:21:58;;;;;;;10.18;6.70;;;10.50;61.90;;;;;;5115367;27;20425;-58
2022/04/19 11:24:59;;;;;;;11.10;6.57;;;10.50;61.90;;;;;;5115536;27;20102;-59
2022/04/19 11:27:54;;;;;;;10.05;7.10;;;10.60;61.80;;;;;;5114538;27;20145;-61
2022/04/19 11:30:24;;;;;;;21.30;8.70;;;10.70;61.70;;;;;;5113978;27;20015;-60
2022/04/19 11:32:58;;;;;;;22.63;9.18;;;10.70;62.10;;;;;;5114553;27;20023;-60
2022/04/19 11:35:26;;;;;;;19.80;10.85;;;10.70;62.30;;;;;;5114179;27;20100;-62
2022/04/19 11:37:52;;;;;;;14.63;8.13;;;10.80;62.60;;;;;;5114856;27;20023;-61
2022/04/19 11:48:48;;;;;;;9.80;7.43;;;11.20;61.90;;;;;;5132962;27;20395;-62
2022/04/19 11:51:16;;;;;;;14.20;9.68;;;11.20;61.30;;;;;;5111864;27;20478;-63
2022/04/19 11:53:43;;;;;;;9.98;8.32;;;11.30;61.30;;;;;;5133113;27;20172;-59
2022/04/19 11:56:10;;;;;;;13.57;8.80;;;11.30;61.10;;;;;;5133267;27;20030;-63
2022/04/19 11:58:38;;;;;;;10.23;8.00;;;11.30;60.80;;;;;;5114704;27;20063;-60
2022/04/19 12:01:07;;;;;;;13.15;8.70;;;11.20;60.80;;;;;;5133014;27;20084;-62
2022/04/19 12:03:38;;;;;;;13.23;8.57;;;11.30;60.80;;;;;;5133108;27;20019;-61
2022/04/19 12:06:15;;;;;;;8.38;6.78;;;11.30;60.40;;;;;;5133442;27;20548;-63
2022/04/19 12:08:41;;;;;;;11.10;8.30;;;11.10;60.10;;;;;;5133256;27;20059;-60
2022/04/19 12:11:21;;;;;;;10.77;6.85;;;11.10;61.10;;;;;;5113920;27;20068;-58
2022/04/19 12:13:48;;;;;;;15.95;9.82;;;11.00;61.60;;;;;;5132859;27;20028;-62
2022/04/19 12:16:29;;;;;;;8.85;7.78;;;10.90;61.40;;;;;;5131592;27;20027;-62
2022/04/19 12:18:55;;;;;;;7.78;6.60;;;11.00;62.40;;;;;;5114314;27;20031;-63
2022/04/19 12:21:42;;;;;;;7.95;6.75;;;10.90;61.30;;;;;;5131469;27;20027;-63
2022/04/19 12:24:31;;;;;;;9.57;7.28;;;11.00;61.10;;;;;;5097715;27;20063;-63
2022/04/19 12:27:05;;;;;;;7.28;6.20;;;11.00;62.00;;;;;;5132409;27;20059;-63
2022/04/19 12:29:32;;;;;;;18.13;13.48;;;10.90;61.10;;;;;;5130211;27;20409;-62
2022/04/19 12:32:02;;;;;;;9.48;6.88;;;10.80;61.40;;;;;;5112484;27;20028;-56
2022/04/19 12:34:36;;;;;;;10.43;7.70;;;10.70;61.80;;;;;;5113109;27;20364;-63
2022/04/19 12:37:10;;;;;;;7.45;6.00;;;10.60;62.00;;;;;;5113848;27;20444;-60
2022/04/19 12:39:36;;;;;;;10.05;7.15;;;10.60;62.00;;;;;;5132408;27;20092;-61
2022/04/19 12:42:19;;;;;;;8.05;6.80;;;10.50;62.70;;;;;;5113711;27;20047;-62
2022/04/19 12:45:03;;;;;;;8.38;6.47;;;10.50;63.20;;;;;;5132584;27;20482;-61
2022/04/19 12:47:28;;;;;;;10.02;7.60;;;10.50;63.20;;;;;;5131485;27;20035;-64
2022/04/19 12:49:55;;;;;;;10.05;6.47;;;10.50;64.00;;;;;;5130319;27;20353;-61
2022/04/19 12:52:32;;;;;;;9.18;7.38;;;10.60;63.80;;;;;;5114219;27;20023;-61
2022/04/19 12:55:02;;;;;;;7.78;6.68;;;10.50;63.70;;;;;;5132271;27;20027;-60
2022/04/19 12:57:27;;;;;;;6.85;6.15;;;10.50;63.70;;;;;;5096828;27;20035;-63
2022/04/19 12:59:53;;;;;;;10.95;8.48;;;10.50;63.60;;;;;;5109219;27;20383;-62
2022/04/19 13:02:20;;;;;;;10.80;9.18;;;10.50;63.70;;;;;;5131527;27;20026;-63
2022/04/19 13:04:47;;;;;;;10.35;8.40;;;10.50;63.60;;;;;;5130911;27;20011;-65
2022/04/19 13:12:44;;;;;;;8.48;7.60;;;10.70;63.50;;;;;;5131176;28;20065;-60
2022/04/19 13:15:10;;;;;;;9.32;7.32;;;10.70;63.90;;;;;;5112145;28;20118;-63
2022/04/19 13:17:39;;;;;;;14.07;8.23;;;10.70;63.60;;;;;;5112756;28;20023;-64
2022/04/19 13:20:06;;;;;;;7.28;6.38;;;10.70;64.10;;;;;;5113352;28;20038;-62
2022/04/19 13:22:32;;;;;;;10.40;7.78;;;10.60;63.60;;;;;;5131667;27;20030;-56
2022/04/19 13:24:58;;;;;;;8.55;7.13;;;10.60;63.60;;;;;;5113419;28;20020;-62
2022/04/19 13:27:26;;;;;;;12.05;7.78;;;10.60;63.40;;;;;;5131367;27;20174;-64
2022/04/19 13:29:52;;;;;;;7.50;6.70;;;10.60;63.70;;;;;;5113222;28;20087;-63
2022/04/19 13:32:19;;;;;;;11.70;8.75;;;10.70;63.80;;;;;;5131269;27;20118;-63
2022/04/19 13:34:44;;;;;;;21.13;14.75;;;10.80;63.50;;;;;;5131566;28;20035;-65